Time;durP1;ratioP1;P1;durP2;ratioP2;P2;SDS_P1;SDS_P2;PMS_P1;PMS_P2;Temp;Humidity;BMP_temperature;BMP_pressure;BME280_temperature;BME280_humidity;BME280_pressure;Samples;Min_cycle;Max_cycle;Signal;HPM_P1;HPM_P2
2022/04/26 03:36:59;;;;;;;;;;;;;;;;;;5053761;28;19934;-82
2022/04/26 03:39:24;;;;;;;;;;;;;;;;;;5053654;28;20288;-82
2022/04/26 03:41:49;;;;;;;;;;;;;;;;;;5053789;28;20373;-82
2022/04/26 03:44:14;;;;;;;;;;;;;;;;;;5053173;28;19908;-81
2022/04/26 03:46:39;;;;;;;;;;;;;;;;;;5051138;28;20023;-82
2022/04/26 03:49:05;;;;;;;;;;;;;;;;;;5051987;28;20382;-82
2022/04/26 03:51:30;;;;;;;;;;;;;;;;;;5052310;28;19917;-82
2022/04/26 03:53:55;;;;;;;;;;;;;;;;;;5053143;28;19908;-82
2022/04/26 03:56:21;;;;;;;;;;;;;;;;;;5051885;28;19909;-82
2022/04/26 03:58:46;;;;;;;;;;;;;;;;;;5051763;28;19966;-82
2022/04/26 04:01:11;;;;;;;;;;;;;;;;;;5053605;28;19916;-82
2022/04/26 04:03:36;;;;;;;;;;;;;;;;;;5051711;28;19909;-82
2022/04/26 04:06:01;;;;;;;;;;;;;;;;;;5051975;28;20365;-82
2022/04/26 04:08:26;;;;;;;;;;;;;;;;;;5053253;28;19908;-82
2022/04/26 04:10:51;;;;;;;;;;;;;;;;;;5051531;28;19940;-82
2022/04/26 04:13:17;;;;;;;;;;;;;;;;;;5052276;28;20044;-82
2022/04/26 04:15:43;;;;;;;;;;;;;;;;;;5051856;28;19913;-82
2022/04/26 04:19:17;;;;;;;;;;;;;;;;;;5051608;28;19916;-82
2022/04/26 04:20:53;;;;;;;;;;;;;;;;;;5052478;28;19916;-82
2022/04/26 04:23:18;;;;;;;;;;;;;;;;;;5052447;28;20319;-82
2022/04/26 04:25:43;;;;;;;;;;;;;;;;;;5053035;28;19920;-82
2022/04/26 04:28:08;;;;;;;;;;;;;;;;;;5051486;28;20272;-82
2022/04/26 04:30:33;;;;;;;;;;;;;;;;;;5052706;28;20019;-82
2022/04/26 04:32:58;;;;;;;;;;;;;;;;;;5051076;28;19955;-82
2022/04/26 04:35:23;;;;;;;;;;;;;;;;;;5051381;28;19916;-82
2022/04/26 04:37:49;;;;;;;;;;;;;;;;;;5051051;28;19909;-82
2022/04/26 04:40:14;;;;;;;;;;;;;;;;;;5051206;28;20249;-82
2022/04/26 04:42:39;;;;;;;;;;;;;;;;;;5051475;28;19920;-82
2022/04/26 04:45:04;;;;;;;;;;;;;;;;;;5052113;28;19963;-82
2022/04/26 04:47:29;;;;;;;;;;;;;;;;;;5052284;28;20003;-82
2022/04/26 04:49:54;;;;;;;;;;;;;;;;;;5051036;28;19916;-82
2022/04/26 04:52:20;;;;;;;;;;;;;;;;;;5051100;28;19951;-82
2022/04/26 04:54:45;;;;;;;;;;;;;;;;;;5050573;28;19913;-82
2022/04/26 04:57:10;;;;;;;;;;;;;;;;;;5050531;28;20387;-82
2022/04/26 04:59:35;;;;;;;;;;;;;;;;;;5050956;28;19913;-82
2022/04/26 05:02:00;;;;;;;;;;;;;;;;;;5051012;28;19916;-82
2022/04/26 05:04:25;;;;;;;;;;;;;;;;;;5050552;28;19909;-82
2022/04/26 05:06:50;;;;;;;;;;;;;;;;;;5052076;28;19909;-82
2022/04/26 05:09:16;;;;;;;;;;;;;;;;;;5050614;28;19974;-82
2022/04/26 05:11:41;;;;;;;;;;;;;;;;;;5051102;28;20319;-82
2022/04/26 05:14:07;;;;;;;;;;;;;;;;;;5050573;28;20276;-82
2022/04/26 05:16:32;;;;;;;;;;;;;;;;;;5050649;28;20344;-82
2022/04/26 05:18:57;;;;;;;;;;;;;;;;;;5050802;28;20411;-82
2022/04/26 05:21:22;;;;;;;;;;;;;;;;;;5050649;28;19945;-82
2022/04/26 05:26:31;;;;;;;;;;;;;;;;;;5051905;28;19939;-82
2022/04/26 05:28:56;;;;;;;;;;;;;;;;;;5051932;28;20338;-82
2022/04/26 05:31:21;;;;;;;;;;;;;;;;;;5050516;28;20478;-82
2022/04/26 05:33:47;;;;;;;;;;;;;;;;;;5049984;28;19916;-82
2022/04/26 05:36:13;;;;;;;;;;;;;;;;;;5050296;28;21123;-82
2022/04/26 05:38:38;;;;;;;;;;;;;;;;;;5050380;28;20293;-82
2022/04/26 05:41:03;;;;;;;;;;;;;;;;;;5050287;28;19909;-82
2022/04/26 05:43:28;;;;;;;;;;;;;;;;;;5050267;28;19909;-82
2022/04/26 05:45:53;;;;;;;;;;;;;;;;;;5050324;28;20011;-82
2022/04/26 05:48:18;;;;;;;;;;;;;;;;;;5051287;28;19917;-82
2022/04/26 05:50:43;;;;;;;;;;;;;;;;;;5051980;28;19908;-82
2022/04/26 05:53:08;;;;;;;;;;;;;;;;;;5049941;28;19920;-82
2022/04/26 05:55:33;;;;;;;;;;;;;;;;;;5050852;28;19962;-82
2022/04/26 05:57:59;;;;;;;;;;;;;;;;;;5069871;28;19912;-82
2022/04/26 06:00:24;;;;;;;;;;;;;;;;;;5067685;28;19913;-82
2022/04/26 06:02:49;;;;;;;;;;;;;;;;;;5064274;28;20260;-81
2022/04/26 06:05:14;;;;;;;;;;;;;;;;;;5071546;28;19917;-82
2022/04/26 06:07:39;;;;;;;;;;;;;;;;;;5072563;28;19912;-82
2022/04/26 06:10:04;;;;;;;;;;;;;;;;;;5074210;28;19909;-81
2022/04/26 06:12:31;;;;;;;;;;;;;;;;;;5076555;28;20364;-82
2022/04/26 06:14:56;;;;;;;;;;;;;;;;;;5075382;28;19909;-82
2022/04/26 06:17:21;;;;;;;;;;;;;;;;;;5071313;28;19917;-82
2022/04/26 06:19:46;;;;;;;;;;;;;;;;;;5065719;28;19946;-82
2022/04/26 06:22:11;;;;;;;;;;;;;;;;;;5057927;28;20091;-82
2022/04/26 06:24:37;;;;;;;;;;;;;;;;;;5071038;28;20901;-82
2022/04/26 06:27:02;;;;;;;;;;;;;;;;;;5062275;28;20428;-82
2022/04/26 06:29:27;;;;;;;;;;;;;;;;;;5081737;28;19955;-82
2022/04/26 06:31:52;;;;;;;;;;;;;;;;;;5090350;28;19912;-82
2022/04/26 06:34:17;;;;;;;;;;;;;;;;;;5073668;28;19921;-82
2022/04/26 06:36:42;;;;;;;;;;;;;;;;;;5065189;28;19959;-82
2022/04/26 06:39:08;;;;;;;;;;;;;;;;;;5061916;28;19909;-82
2022/04/26 06:41:33;;;;;;;;;;;;;;;;;;5071124;28;19909;-82
2022/04/26 06:43:58;;;;;;;;;;;;;;;;;;5068411;28;19908;-82
2022/04/26 06:46:23;;;;;;;;;;;;;;;;;;5075267;28;19912;-81
2022/04/26 06:48:49;;;;;;;;;;;;;;;;;;5075768;28;19970;-82
2022/04/26 06:51:14;;;;;;;;;;;;;;;;;;5067461;28;19936;-82
2022/04/26 06:53:39;;;;;;;;;;;;;;;;;;5062326;28;20284;-82
2022/04/26 06:56:04;;;;;;;;;;;;;;;;;;5067931;28;20374;-81
2022/04/26 06:58:30;;;;;;;;;;;;;;;;;;5073827;28;19915;-82
2022/04/26 07:00:55;;;;;;;;;;;;;;;;;;5074899;28;20037;-81
2022/04/26 07:03:20;;;;;;;;;;;;;;;;;;5065968;28;20261;-81
2022/04/26 07:05:46;;;;;;;;;;;;;;;;;;5073750;28;19916;-82
2022/04/26 07:08:11;;;;;;;;;;;;;;;;;;5070443;28;19928;-81
2022/04/26 07:10:36;;;;;;;;;;;;;;;;;;5072777;28;20367;-82
2022/04/26 07:13:01;;;;;;;;;;;;;;;;;;5071396;28;19939;-82
2022/04/26 07:15:26;;;;;;;;;;;;;;;;;;5068722;28;20030;-82
2022/04/26 07:17:51;;;;;;;;;;;;;;;;;;5054197;28;19940;-82
2022/04/26 07:20:16;;;;;;;;;;;;;;;;;;5064845;28;20379;-81
2022/04/26 07:22:42;;;;;;;;;;;;;;;;;;5073595;28;20007;-81
2022/04/26 07:25:07;;;;;;;;;;;;;;;;;;5071004;28;19923;-81
2022/04/26 07:27:32;;;;;;;;;;;;;;;;;;5070886;28;19917;-82
2022/04/26 07:29:57;;;;;;;;;;;;;;;;;;5070250;28;19924;-82
2022/04/26 07:35:06;;;;;;;;;;;;;;;;;;5062050;28;19920;-81
2022/04/26 07:37:31;;;;;;;;;;;;;;;;;;5072406;28;19912;-81
2022/04/26 07:39:57;;;;;;;;;;;;;;;;;;5073844;28;19909;-81
2022/04/26 07:42:22;;;;;;;;;;;;;;;;;;5073636;28;20322;-82
2022/04/26 07:44:47;;;;;;;;;;;;;;;;;;5068203;28;20326;-82
2022/04/26 07:47:12;;;;;;;;;;;;;;;;;;5065426;28;19920;-81
2022/04/26 07:49:37;;;;;;;;;;;;;;;;;;5072184;28;19909;-82
2022/04/26 07:52:02;;;;;;;;;;;;;;;;;;5073874;28;19913;-82
2022/04/26 07:54:27;;;;;;;;;;;;;;;;;;5071582;28;19938;-82
2022/04/26 07:56:52;;;;;;;;;;;;;;;;;;5073075;28;19916;-82
2022/04/26 07:59:18;;;;;;;;;;;;;;;;;;5073503;28;19934;-82
2022/04/26 08:01:43;;;;;;;;;;;;;;;;;;5072065;28;20249;-82
2022/04/26 08:04:08;;;;;;;;;;;;;;;;;;5067967;28;19940;-81
2022/04/26 08:06:33;;;;;;;;;;;;;;;;;;5051377;28;19920;-82
2022/04/26 08:08:58;;;;;;;;;;;;;;;;;;5051848;28;19908;-82
2022/04/26 08:11:23;;;;;;;;;;;;;;;;;;5051750;28;19948;-82
2022/04/26 08:13:49;;;;;;;;;;;;;;;;;;5064069;28;20010;-82
2022/04/26 08:16:14;;;;;;;;;;;;;;;;;;5071016;28;19908;-82
2022/04/26 08:18:39;;;;;;;;;;;;;;;;;;5071525;28;19909;-82
2022/04/26 08:21:04;;;;;;;;;;;;;;;;;;5071457;28;19962;-82
2022/04/26 08:23:31;;;;;;;;;;;;;;;;;;5072592;28;19970;-82
2022/04/26 08:29:00;;;;;;;;;;;;;;;;;;5070585;28;19999;-82
2022/04/26 08:31:25;;;;;;;;;;;;;;;;;;5053509;28;20007;-82
2022/04/26 08:33:50;;;;;;;;;;;;;;;;;;5059892;28;19912;-82
2022/04/26 08:36:15;;;;;;;;;;;;;;;;;;5072004;28;19912;-82
2022/04/26 08:38:41;;;;;;;;;;;;;;;;;;5071075;28;19909;-82
2022/04/26 08:41:06;;;;;;;;;;;;;;;;;;5072457;28;19948;-82
2022/04/26 08:43:33;;;;;;;;;;;;;;;;;;5071297;28;19940;-82
2022/04/26 08:45:59;;;;;;;;;;;;;;;;;;5070620;28;20294;-82
2022/04/26 08:51:09;;;;;;;;;;;;;;;;;;5073602;28;19919;-82
2022/04/26 08:53:34;;;;;;;;;;;;;;;;;;5071822;28;19913;-81
2022/04/26 08:56:01;;;;;;;;;;;;;;;;;;5072002;28;19908;-81
2022/04/26 08:58:27;;;;;;;;;;;;;;;;;;5072001;28;19912;-82
2022/04/26 09:00:52;;;;;;;;;;;;;;;;;;5072067;28;20026;-82
2022/04/26 09:03:17;;;;;;;;;;;;;;;;;;5072372;28;20398;-82
2022/04/26 09:05:46;;;;;;;;;;;;;;;;;;5072076;28;20414;-82
2022/04/26 09:08:11;;;;;;;;;;;;;;;;;;5072127;28;19934;-82
2022/04/26 09:10:36;;;;;;;;;;;;;;;;;;5071019;28;19912;-82
2022/04/26 09:13:04;;;;;;;;;;;;;;;;;;5074745;28;20296;-82
2022/04/26 09:15:30;;;;;;;;;;;;;;;;;;5071896;28;19916;-82
2022/04/26 09:17:56;;;;;;;;;;;;;;;;;;5072082;28;19913;-82
2022/04/26 09:20:21;;;;;;;;;;;;;;;;;;5072192;28;19912;-82
2022/04/26 09:22:47;;;;;;;;;;;;;;;;;;5071756;28;19915;-81
2022/04/26 09:25:12;;;;;;;;;;;;;;;;;;5071326;28;19935;-82
2022/04/26 09:27:41;;;;;;;;;;;;;;;;;;5072021;28;19931;-82
2022/04/26 09:30:06;;;;;;;;;;;;;;;;;;5072154;28;19940;-81
2022/04/26 09:32:31;;;;;;;;;;;;;;;;;;5072019;28;19916;-81
2022/04/26 09:34:56;;;;;;;;;;;;;;;;;;5071884;28;20287;-82
2022/04/26 09:37:22;;;;;;;;;;;;;;;;;;5072017;28;20292;-81
2022/04/26 09:39:47;;;;;;;;;;;;;;;;;;5071830;28;19909;-82
2022/04/26 09:42:13;;;;;;;;;;;;;;;;;;5071852;28;20007;-82
2022/04/26 09:44:42;;;;;;;;;;;;;;;;;;5073686;28;20352;-82
2022/04/26 09:47:07;;;;;;;;;;;;;;;;;;5075791;28;19931;-81
2022/04/26 09:49:32;;;;;;;;;;;;;;;;;;5076161;28;19917;-82
2022/04/26 09:52:01;;;;;;;;;;;;;;;;;;5075825;28;19908;-82
2022/04/26 09:54:26;;;;;;;;;;;;;;;;;;5075512;28;19913;-82
2022/04/26 09:56:51;;;;;;;;;;;;;;;;;;5075869;28;19909;-82
2022/04/26 09:59:16;;;;;;;;;;;;;;;;;;5077081;28;20015;-82
2022/04/26 10:01:41;;;;;;;;;;;;;;;;;;5075663;28;20368;-82
2022/04/26 10:04:06;;;;;;;;;;;;;;;;;;5071513;28;19912;-82
2022/04/26 10:06:32;;;;;;;;;;;;;;;;;;5055628;28;19916;-82
2022/04/26 10:08:57;;;;;;;;;;;;;;;;;;5056763;28;19954;-82
2022/04/26 10:11:22;;;;;;;;;;;;;;;;;;5055555;28;19916;-82
2022/04/26 10:13:48;;;;;;;;;;;;;;;;;;5072502;28;19924;-82
2022/04/26 10:16:15;;;;;;;;;;;;;;;;;;5072040;28;20394;-82
2022/04/26 10:18:43;;;;;;;;;;;;;;;;;;5072983;28;19909;-82
2022/04/26 10:21:08;;;;;;;;;;;;;;;;;;5071767;28;19913;-82
2022/04/26 10:23:33;;;;;;;;;;;;;;;;;;5070172;28;20015;-82
2022/04/26 10:25:58;;;;;;;;;;;;;;;;;;5075238;28;19946;-83
2022/04/26 10:28:24;;;;;;;;;;;;;;;;;;5070345;28;20373;-82
2022/04/26 10:30:49;;;;;;;;;;;;;;;;;;5053553;28;19913;-82
2022/04/26 10:33:16;;;;;;;;;;;;;;;;;;5061692;28;19954;-82
2022/04/26 10:35:42;;;;;;;;;;;;;;;;;;5073686;28;20134;-82
2022/04/26 10:38:07;;;;;;;;;;;;;;;;;;5073389;28;19908;-82
2022/04/26 10:40:32;;;;;;;;;;;;;;;;;;5069686;28;19982;-82
2022/04/26 10:42:57;;;;;;;;;;;;;;;;;;5055484;28;20387;-81
2022/04/26 10:45:22;;;;;;;;;;;;;;;;;;5073337;28;19927;-81
2022/04/26 10:47:47;;;;;;;;;;;;;;;;;;5073634;28;19927;-82
2022/04/26 10:50:13;;;;;;;;;;;;;;;;;;5070229;28;19917;-82
2022/04/26 10:52:40;;;;;;;;;;;;;;;;;;5074269;28;20352;-81
2022/04/26 10:55:05;;;;;;;;;;;;;;;;;;5071821;28;20287;-82
2022/04/26 10:57:30;;;;;;;;;;;;;;;;;;5074437;28;19999;-82
2022/04/26 10:59:59;;;;;;;;;;;;;;;;;;5075477;28;19912;-82
2022/04/26 11:02:25;;;;;;;;;;;;;;;;;;5074318;28;19944;-82
2022/04/26 11:04:50;;;;;;;;;;;;;;;;;;5073773;28;20006;-82
2022/04/26 11:07:15;;;;;;;;;;;;;;;;;;5071070;28;20356;-82
2022/04/26 11:09:40;;;;;;;;;;;;;;;;;;5073838;28;19920;-82
2022/04/26 11:12:05;;;;;;;;;;;;;;;;;;5070846;28;19909;-82
2022/04/26 11:14:31;;;;;;;;;;;;;;;;;;5066308;28;20026;-82
2022/04/26 11:16:56;;;;;;;;;;;;;;;;;;5074110;28;20338;-82
2022/04/26 11:19:21;;;;;;;;;;;;;;;;;;5070734;28;19917;-82
2022/04/26 11:21:46;;;;;;;;;;;;;;;;;;5067353;28;20303;-82
2022/04/26 11:29:51;;;;;;;;;;;;;;;;;;5069000;28;19920;-82
2022/04/26 11:32:16;;;;;;;;;;;;;;;;;;5071171;28;19956;-82
2022/04/26 11:34:41;;;;;;;;;;;;;;;;;;5072654;28;19962;-82
2022/04/26 11:37:07;;;;;;;;;;;;;;;;;;5072596;28;20008;-83
2022/04/26 11:39:32;;;;;;;;;;;;;;;;;;5075113;28;19995;-83
2022/04/26 11:41:57;;;;;;;;;;;;;;;;;;5073701;28;19908;-83
2022/04/26 11:44:22;;;;;;;;;;;;;;;;;;5073695;28;19912;-82
2022/04/26 11:46:47;;;;;;;;;;;;;;;;;;5073145;28;19920;-83
2022/04/26 11:49:13;;;;;;;;;;;;;;;;;;5074870;28;19912;-82
2022/04/26 11:51:38;;;;;;;;;;;;;;;;;;5073563;28;19909;-82
2022/04/26 11:54:03;;;;;;;;;;;;;;;;;;5073503;28;19958;-82
2022/04/26 11:56:28;;;;;;;;;;;;;;;;;;5071108;28;19920;-82
2022/04/26 11:58:53;;;;;;;;;;;;;;;;;;5070044;28;20057;-81
2022/04/26 12:01:20;;;;;;;;;;;;;;;;;;5073160;28;19913;-82
2022/04/26 12:03:48;;;;;;;;;;;;;;;;;;5072948;28;19924;-82
2022/04/26 12:06:13;;;;;;;;;;;;;;;;;;5072761;28;20310;-82
2022/04/26 12:08:39;;;;;;;;;;;;;;;;;;5072651;28;20378;-82
2022/04/26 12:11:05;;;;;;;;;;;;;;;;;;5074352;28;19920;-82
2022/04/26 12:13:30;;;;;;;;;;;;;;;;;;5074507;28;19908;-82
2022/04/26 12:15:57;;;;;;;;;;;;;;;;;;5072981;28;20400;-82
2022/04/26 12:18:22;;;;;;;;;;;;;;;;;;5069405;28;20364;-82
2022/04/26 12:20:47;;;;;;;;;;;;;;;;;;5054269;28;19912;-82
2022/04/26 12:23:14;;;;;;;;;;;;;;;;;;5054319;28;19920;-82
2022/04/26 12:25:39;;;;;;;;;;;;;;;;;;5054244;28;19912;-82
2022/04/26 12:28:05;;;;;;;;;;;;;;;;;;5064396;28;19924;-83
2022/04/26 12:30:31;;;;;;;;;;;;;;;;;;5072259;28;19912;-83
2022/04/26 12:32:56;;;;;;;;;;;;;;;;;;5070692;28;19921;-82
2022/04/26 12:35:21;;;;;;;;;;;;;;;;;;5063547;28;19913;-82
2022/04/26 12:37:47;;;;;;;;;;;;;;;;;;5058144;28;19935;-82
2022/04/26 12:40:14;;;;;;;;;;;;;;;;;;5052594;28;19956;-82
2022/04/26 12:42:41;;;;;;;;;;;;;;;;;;5052658;28;20003;-82
2022/04/26 12:45:06;;;;;;;;;;;;;;;;;;5053613;28;19964;-82
2022/04/26 12:50:28;;;;;;;;;;;;;;;;;;5073650;28;19916;-82
2022/04/26 12:52:53;;;;;;;;;;;;;;;;;;5073784;28;19958;-83
2022/04/26 12:55:18;;;;;;;;;;;;;;;;;;5072595;28;20329;-82
2022/04/26 12:57:43;;;;;;;;;;;;;;;;;;5073737;28;19912;-82
2022/04/26 13:00:08;;;;;;;;;;;;;;;;;;5072208;28;19912;-82
2022/04/26 13:02:34;;;;;;;;;;;;;;;;;;5072359;28;19933;-82
2022/04/26 13:04:59;;;;;;;;;;;;;;;;;;5073411;28;20023;-83
2022/04/26 13:07:24;;;;;;;;;;;;;;;;;;5068232;28;20360;-82
2022/04/26 13:09:49;;;;;;;;;;;;;;;;;;5053550;28;19908;-82
2022/04/26 13:12:16;;;;;;;;;;;;;;;;;;5052319;28;19913;-82
2022/04/26 13:14:41;;;;;;;;;;;;;;;;;;5052205;28;19916;-82
2022/04/26 13:17:07;;;;;;;;;;;;;;;;;;5060049;28;19913;-83
2022/04/26 13:19:32;;;;;;;;;;;;;;;;;;5072422;28;20315;-83
2022/04/26 13:21:57;;;;;;;;;;;;;;;;;;5073259;28;20368;-82
2022/04/26 13:24:28;;;;;;;;;;;;;;;;;;5072253;28;19916;-83
2022/04/26 13:26:53;;;;;;;;;;;;;;;;;;5068431;28;19928;-82
2022/04/26 13:29:18;;;;;;;;;;;;;;;;;;5052049;28;19909;-82
2022/04/26 13:31:43;;;;;;;;;;;;;;;;;;5052110;28;19912;-82
2022/04/26 13:34:10;;;;;;;;;;;;;;;;;;5052038;28;20254;-81
2022/04/26 13:36:35;;;;;;;;;;;;;;;;;;5055243;28;20003;-82
2022/04/26 13:39:01;;;;;;;;;;;;;;;;;;5071251;28;19952;-82
2022/04/26 13:41:27;;;;;;;;;;;;;;;;;;5073243;28;20466;-82
2022/04/26 13:43:52;;;;;;;;;;;;;;;;;;5071801;28;19935;-82
2022/04/26 13:46:18;;;;;;;;;;;;;;;;;;5067396;28;19916;-82
2022/04/26 13:48:44;;;;;;;;;;;;;;;;;;5050344;28;20364;-82
2022/04/26 13:51:09;;;;;;;;;;;;;;;;;;5071923;28;19913;-82
2022/04/26 13:53:34;;;;;;;;;;;;;;;;;;5070352;28;19920;-82
2022/04/26 13:56:00;;;;;;;;;;;;;;;;;;5071700;28;20007;-82
2022/04/26 13:58:25;;;;;;;;;;;;;;;;;;5069744;28;20394;-82
2022/04/26 14:00:51;;;;;;;;;;;;;;;;;;5070272;28;20174;-83
2022/04/26 14:03:16;;;;;;;;;;;;;;;;;;5069985;28;19909;-82
2022/04/26 14:05:41;;;;;;;;;;;;;;;;;;5071714;28;19917;-82
2022/04/26 14:08:06;;;;;;;;;;;;;;;;;;5071196;28;20426;-83
2022/04/26 14:10:31;;;;;;;;;;;;;;;;;;5071332;28;19962;-83
2022/04/26 14:12:57;;;;;;;;;;;;;;;;;;5066678;28;19909;-82
2022/04/26 14:23:34;;;;;;;;;;;;;;;;;;5070652;28;19924;-82
2022/04/26 14:25:59;;;;;;;;;;;;;;;;;;5069967;28;19912;-83
2022/04/26 14:28:24;;;;;;;;;;;;;;;;;;5069637;28;20418;-83
2022/04/26 14:30:49;;;;;;;;;;;;;;;;;;5072133;28;19951;-82
2022/04/26 14:33:15;;;;;;;;;;;;;;;;;;5074728;28;19968;-82
2022/04/26 14:35:40;;;;;;;;;;;;;;;;;;5073275;28;20275;-83
2022/04/26 14:38:06;;;;;;;;;;;;;;;;;;5069693;28;19908;-83
2022/04/26 14:40:32;;;;;;;;;;;;;;;;;;5053182;28;19931;-83
2022/04/26 14:42:57;;;;;;;;;;;;;;;;;;5053002;28;19909;-82
2022/04/26 14:45:22;;;;;;;;;;;;;;;;;;5060870;28;19928;-83
2022/04/26 14:47:48;;;;;;;;;;;;;;;;;;5073034;28;20407;-82
2022/04/26 14:50:13;;;;;;;;;;;;;;;;;;5074728;28;19916;-83
2022/04/26 14:52:38;;;;;;;;;;;;;;;;;;5071034;28;20284;-83
2022/04/26 14:55:04;;;;;;;;;;;;;;;;;;5054694;28;19919;-83
2022/04/26 14:57:29;;;;;;;;;;;;;;;;;;5064594;28;20259;-83
2022/04/26 14:59:54;;;;;;;;;;;;;;;;;;5072716;28;19916;-83
2022/04/26 15:02:19;;;;;;;;;;;;;;;;;;5072942;28;19909;-83
2022/04/26 15:04:45;;;;;;;;;;;;;;;;;;5072772;28;19912;-83
2022/04/26 15:07:10;;;;;;;;;;;;;;;;;;5061797;28;19912;-83
2022/04/26 15:09:45;;;;;;;;;;;;;;;;;;5068106;28;19912;-83
2022/04/26 15:17:38;;;;;;;;;;;;;;;;;;5075403;28;19916;-83
2022/04/26 15:20:03;;;;;;;;;;;;;;;;;;5073795;28;20524;-83
2022/04/26 15:22:28;;;;;;;;;;;;;;;;;;5073699;28;19916;-83
2022/04/26 15:24:54;;;;;;;;;;;;;;;;;;5073709;28;20298;-83
2022/04/26 15:27:19;;;;;;;;;;;;;;;;;;5075014;28;19908;-83
2022/04/26 15:29:44;;;;;;;;;;;;;;;;;;5075257;28;20371;-83
2022/04/26 15:32:09;;;;;;;;;;;;;;;;;;5072612;28;19908;-83
2022/04/26 15:34:34;;;;;;;;;;;;;;;;;;5073839;28;19912;-83
2022/04/26 15:36:59;;;;;;;;;;;;;;;;;;5073220;28;19912;-83
2022/04/26 15:39:25;;;;;;;;;;;;;;;;;;5073688;28;19912;-83
2022/04/26 15:41:50;;;;;;;;;;;;;;;;;;5069376;28;19921;-83
2022/04/26 15:44:16;;;;;;;;;;;;;;;;;;5054944;28;19908;-83
2022/04/26 15:46:41;;;;;;;;;;;;;;;;;;5071023;28;19924;-83
2022/04/26 15:49:06;;;;;;;;;;;;;;;;;;5073432;28;19970;-83
2022/04/26 15:51:31;;;;;;;;;;;;;;;;;;5074165;28;19913;-83
2022/04/26 15:53:57;;;;;;;;;;;;;;;;;;5074906;28;20352;-83
2022/04/26 15:56:22;;;;;;;;;;;;;;;;;;5073037;28;19920;-83
2022/04/26 15:58:47;;;;;;;;;;;;;;;;;;5073465;28;20377;-83
2022/04/26 16:01:12;;;;;;;;;;;;;;;;;;5072656;28;19924;-83
2022/04/26 16:03:38;;;;;;;;;;;;;;;;;;5073237;28;19947;-83
2022/04/26 16:06:03;;;;;;;;;;;;;;;;;;5070917;28;19917;-83
2022/04/26 16:08:32;;;;;;;;;;;;;;;;;;5069233;28;19917;-83
2022/04/26 16:21:53;;;;;;;;;;;;;;;;;;5074006;28;20391;-83
2022/04/26 16:24:19;;;;;;;;;;;;;;;;;;5069725;28;19913;-83
2022/04/26 16:26:44;;;;;;;;;;;;;;;;;;5068805;28;19981;-83
2022/04/26 16:29:09;;;;;;;;;;;;;;;;;;5069115;28;19935;-83
2022/04/26 16:31:34;;;;;;;;;;;;;;;;;;5071918;28;19912;-83
2022/04/26 16:33:59;;;;;;;;;;;;;;;;;;5068957;28;19924;-83
2022/04/26 16:36:28;;;;;;;;;;;;;;;;;;5062264;28;19954;-83
2022/04/26 16:38:53;;;;;;;;;;;;;;;;;;5071340;28;19913;-83
2022/04/26 16:41:19;;;;;;;;;;;;;;;;;;5071690;28;19920;-83
2022/04/26 16:43:44;;;;;;;;;;;;;;;;;;5068662;28;19923;-83
2022/04/26 16:46:11;;;;;;;;;;;;;;;;;;5063361;28;19916;-82
2022/04/26 16:48:36;;;;;;;;;;;;;;;;;;5071566;28;19931;-83
2022/04/26 16:51:01;;;;;;;;;;;;;;;;;;5073625;28;19912;-83
2022/04/26 16:53:27;;;;;;;;;;;;;;;;;;5073240;28;20371;-83
2022/04/26 16:55:52;;;;;;;;;;;;;;;;;;5072331;28;19919;-83
2022/04/26 16:58:18;;;;;;;;;;;;;;;;;;5072242;28;19960;-83
2022/04/26 17:00:44;;;;;;;;;;;;;;;;;;5070541;28;20397;-83
2022/04/26 17:03:10;;;;;;;;;;;;;;;;;;5068225;28;19948;-83
2022/04/26 17:05:35;;;;;;;;;;;;;;;;;;5068228;28;20001;-82
2022/04/26 17:08:00;;;;;;;;;;;;;;;;;;5068563;28;19909;-83
2022/04/26 17:10:25;;;;;;;;;;;;;;;;;;5057668;28;19916;-83
2022/04/26 17:12:52;;;;;;;;;;;;;;;;;;5072713;28;19912;-83
2022/04/26 17:15:17;;;;;;;;;;;;;;;;;;5068988;28;19920;-83
2022/04/26 17:17:42;;;;;;;;;;;;;;;;;;5072994;28;19912;-83
2022/04/26 17:20:08;;;;;;;;;;;;;;;;;;5071390;28;19913;-83
2022/04/26 17:22:33;;;;;;;;;;;;;;;;;;5071343;28;19913;-83
2022/04/26 17:25:13;;;;;;;;;;;;;;;;;;5070926;28;19937;-82
2022/04/26 17:27:39;;;;;;;;;;;;;;;;;;5067847;28;19917;-83
2022/04/26 17:30:04;;;;;;;;;;;;;;;;;;5051623;28;20003;-83
2022/04/26 17:32:30;;;;;;;;;;;;;;;;;;5062035;28;20062;-83
2022/04/26 17:34:55;;;;;;;;;;;;;;;;;;5071440;28;19962;-83
2022/04/26 17:37:21;;;;;;;;;;;;;;;;;;5071822;28;20054;-83
2022/04/26 17:39:46;;;;;;;;;;;;;;;;;;5071537;28;19917;-83
2022/04/26 17:42:12;;;;;;;;;;;;;;;;;;5059634;28;19917;-84
2022/04/26 17:44:38;;;;;;;;;;;;;;;;;;5060591;28;19958;-83
2022/04/26 17:47:03;;;;;;;;;;;;;;;;;;5061157;28;20024;-83
2022/04/26 17:49:28;;;;;;;;;;;;;;;;;;5068249;28;19920;-83
2022/04/26 17:51:53;;;;;;;;;;;;;;;;;;5064904;28;19919;-83
2022/04/26 17:57:22;;;;;;;;;;;;;;;;;;5070675;28;20030;-83
2022/04/26 17:59:48;;;;;;;;;;;;;;;;;;5038895;28;19960;-82
2022/04/26 18:02:13;;;;;;;;;;;;;;;;;;5058627;28;19913;-83
2022/04/26 18:04:40;;;;;;;;;;;;;;;;;;5072952;28;19919;-82
2022/04/26 18:07:05;;;;;;;;;;;;;;;;;;5075493;28;20364;-83
2022/04/26 18:09:32;;;;;;;;;;;;;;;;;;5074347;28;19912;-83
2022/04/26 18:11:57;;;;;;;;;;;;;;;;;;5076041;28;19913;-82
2022/04/26 18:14:23;;;;;;;;;;;;;;;;;;5071720;28;19917;-83
2022/04/26 18:16:48;;;;;;;;;;;;;;;;;;5056574;28;20318;-83
2022/04/26 18:19:13;;;;;;;;;;;;;;;;;;5074932;28;19912;-83
2022/04/26 18:21:38;;;;;;;;;;;;;;;;;;5074434;28;19912;-83
2022/04/26 18:24:03;;;;;;;;;;;;;;;;;;5071902;28;19920;-83
2022/04/26 18:26:28;;;;;;;;;;;;;;;;;;5069366;28;19920;-83
2022/04/26 18:28:55;;;;;;;;;;;;;;;;;;5071764;28;19948;-83
2022/04/26 18:31:20;;;;;;;;;;;;;;;;;;5073995;28;19966;-83
2022/04/26 18:33:46;;;;;;;;;;;;;;;;;;5074109;28;20614;-83
2022/04/26 18:36:11;;;;;;;;;;;;;;;;;;5074811;28;19912;-83
2022/04/26 18:38:39;;;;;;;;;;;;;;;;;;5074612;28;19916;-82
2022/04/26 18:41:04;;;;;;;;;;;;;;;;;;5075110;28;19912;-83
2022/04/26 18:43:29;;;;;;;;;;;;;;;;;;5075918;28;19912;-83
2022/04/26 18:45:55;;;;;;;;;;;;;;;;;;5070979;28;19917;-83
2022/04/26 18:48:20;;;;;;;;;;;;;;;;;;5056143;28;20364;-83
2022/04/26 18:50:45;;;;;;;;;;;;;;;;;;5062825;28;19922;-83
2022/04/26 18:53:11;;;;;;;;;;;;;;;;;;5071051;28;19913;-83
2022/04/26 18:55:36;;;;;;;;;;;;;;;;;;5064195;28;19913;-83
2022/04/26 18:58:01;;;;;;;;;;;;;;;;;;5073321;28;20380;-83
2022/04/26 19:00:26;;;;;;;;;;;;;;;;;;5069904;28;19913;-82
2022/04/26 19:02:51;;;;;;;;;;;;;;;;;;5072181;28;19913;-83
2022/04/26 19:05:16;;;;;;;;;;;;;;;;;;5070715;28;20012;-84
2022/04/26 19:07:41;;;;;;;;;;;;;;;;;;5055963;28;19909;-84
2022/04/26 19:12:51;;;;;;;;;;;;;;;;;;5075824;28;19914;-84
2022/04/26 19:15:16;;;;;;;;;;;;;;;;;;5070607;28;19996;-84
2022/04/26 19:17:41;;;;;;;;;;;;;;;;;;5068650;28;20278;-83
2022/04/26 19:20:06;;;;;;;;;;;;;;;;;;5074033;28;19912;-84
2022/04/26 19:22:31;;;;;;;;;;;;;;;;;;5070671;28;19980;-83
2022/04/26 19:24:57;;;;;;;;;;;;;;;;;;5070454;28;19912;-83
2022/04/26 19:27:22;;;;;;;;;;;;;;;;;;5074779;28;19950;-84
2022/04/26 19:29:47;;;;;;;;;;;;;;;;;;5074038;28;20368;-84
2022/04/26 19:32:13;;;;;;;;;;;;;;;;;;5069791;28;20046;-83
2022/04/26 19:34:38;;;;;;;;;;;;;;;;;;5067643;28;20409;-84
2022/04/26 19:37:03;;;;;;;;;;;;;;;;;;5070287;28;19913;-84
2022/04/26 19:39:28;;;;;;;;;;;;;;;;;;5071976;28;19927;-83
2022/04/26 19:41:53;;;;;;;;;;;;;;;;;;5073476;28;19923;-83
2022/04/26 19:44:18;;;;;;;;;;;;;;;;;;5073571;28;19919;-83
2022/04/26 19:46:43;;;;;;;;;;;;;;;;;;5073389;28;20015;-83
2022/04/26 19:49:09;;;;;;;;;;;;;;;;;;5073618;28;19909;-83
2022/04/26 19:51:36;;;;;;;;;;;;;;;;;;5069584;28;20315;-83
2022/04/26 19:54:01;;;;;;;;;;;;;;;;;;5071479;28;19908;-82
2022/04/26 19:56:27;;;;;;;;;;;;;;;;;;5073369;28;19913;-83
2022/04/26 19:58:52;;;;;;;;;;;;;;;;;;5074601;28;20007;-83
2022/04/26 20:01:17;;;;;;;;;;;;;;;;;;5072459;28;19908;-83
2022/04/26 20:03:43;;;;;;;;;;;;;;;;;;5072128;28;19909;-83
2022/04/26 20:06:08;;;;;;;;;;;;;;;;;;5071868;28;19913;-83
2022/04/26 20:08:33;;;;;;;;;;;;;;;;;;5071626;28;19927;-83
2022/04/26 20:10:59;;;;;;;;;;;;;;;;;;5073060;28;19919;-83
2022/04/26 20:13:24;;;;;;;;;;;;;;;;;;5070825;28;20007;-83
2022/04/26 20:15:49;;;;;;;;;;;;;;;;;;5071531;28;19912;-83
2022/04/26 20:18:14;;;;;;;;;;;;;;;;;;5072623;28;19948;-83
2022/04/26 20:20:39;;;;;;;;;;;;;;;;;;5072764;28;19951;-83
2022/04/26 20:23:05;;;;;;;;;;;;;;;;;;5071094;28;20037;-83
2022/04/26 20:25:30;;;;;;;;;;;;;;;;;;5067657;28;19982;-83
2022/04/26 20:30:39;;;;;;;;;;;;;;;;;;5052684;28;19915;-83
2022/04/26 20:33:04;;;;;;;;;;;;;;;;;;5068385;28;19916;-83
2022/04/26 20:35:34;;;;;;;;;;;;;;;;;;5072644;28;19908;-83
2022/04/26 20:37:59;;;;;;;;;;;;;;;;;;5072229;28;19912;-83
2022/04/26 20:40:24;;;;;;;;;;;;;;;;;;5072194;28;19970;-83
2022/04/26 20:42:51;;;;;;;;;;;;;;;;;;5070813;28;20410;-83
2022/04/26 20:45:17;;;;;;;;;;;;;;;;;;5070698;28;19916;-83
2022/04/26 20:47:42;;;;;;;;;;;;;;;;;;5070114;28;20383;-83
2022/04/26 20:50:07;;;;;;;;;;;;;;;;;;5070954;28;19953;-83
2022/04/26 20:52:32;;;;;;;;;;;;;;;;;;5072215;28;19977;-83
2022/04/26 20:54:57;;;;;;;;;;;;;;;;;;5070834;28;19915;-83
2022/04/26 20:57:22;;;;;;;;;;;;;;;;;;5069228;28;19928;-83
2022/04/26 20:59:47;;;;;;;;;;;;;;;;;;5070171;28;20120;-83
2022/04/26 21:02:12;;;;;;;;;;;;;;;;;;5071022;28;19962;-83